Time;durP1;ratioP1;P1;durP2;ratioP2;P2;SDS_P1;SDS_P2;PMS_P1;PMS_P2;Temp;Humidity;BMP_temperature;BMP_pressure;BME280_temperature;BME280_humidity;BME280_pressure;Samples;Min_cycle;Max_cycle;Signal;HPM_P1;HPM_P2
2022/07/08 00:00:12;;;;;;;5.20;2.97;;;16.00;99.90;;;;;;5036932;28;20630;-73
2022/07/08 00:02:39;;;;;;;5.70;4.00;;;16.00;99.90;;;;;;5055697;28;20619;-73
2022/07/08 00:05:06;;;;;;;5.33;3.70;;;15.90;99.90;;;;;;5055147;28;20836;-73
2022/07/08 00:07:32;;;;;;;5.97;3.87;;;15.80;99.90;;;;;;5054445;28;20646;-73
2022/07/08 00:09:59;;;;;;;5.57;3.70;;;15.80;99.90;;;;;;5054951;28;20611;-73
2022/07/08 00:12:25;;;;;;;10.57;6.63;;;15.70;99.90;;;;;;5054674;28;20650;-73
2022/07/08 00:14:52;;;;;;;10.70;7.33;;;15.70;99.90;;;;;;5054564;28;21123;-73
2022/07/08 00:17:18;;;;;;;6.27;3.27;;;15.70;99.90;;;;;;5055277;28;20629;-73
2022/07/08 00:19:45;;;;;;;6.10;2.83;;;15.70;99.90;;;;;;5054728;28;20638;-73
2022/07/08 00:22:11;;;;;;;13.30;5.00;;;15.60;99.90;;;;;;5054825;28;20943;-73
2022/07/08 00:24:37;;;;;;;4.63;3.57;;;15.50;99.90;;;;;;5054526;28;20614;-73
2022/07/08 00:27:04;;;;;;;7.70;3.47;;;15.50;99.90;;;;;;5054871;28;20607;-73
2022/07/08 00:29:30;;;;;;;6.10;3.97;;;15.50;99.90;;;;;;5054560;28;20634;-73
2022/07/08 00:31:57;;;;;;;3.97;3.30;;;15.40;99.90;;;;;;5054305;28;20616;-73
2022/07/08 00:34:23;;;;;;;4.47;3.00;;;15.40;99.90;;;;;;5036167;28;20666;-73
2022/07/08 00:36:50;;;;;;;6.20;3.20;;;15.30;99.90;;;;;;5054567;28;20982;-73
2022/07/08 00:39:16;;;;;;;8.00;3.43;;;15.20;99.90;;;;;;5054199;28;20661;-73
2022/07/08 00:41:43;;;;;;;6.00;3.50;;;15.20;99.90;;;;;;5054351;28;20997;-73
2022/07/08 00:44:10;;;;;;;5.33;2.70;;;15.20;99.90;;;;;;5052870;28;20628;-73
2022/07/08 00:46:36;;;;;;;7.03;3.37;;;15.20;99.90;;;;;;5054553;28;20611;-73
2022/07/08 00:49:03;;;;;;;5.43;2.90;;;15.30;99.90;;;;;;5053933;28;20619;-73
2022/07/08 00:51:30;;;;;;;5.83;3.10;;;15.30;99.90;;;;;;5054149;28;20622;-73
2022/07/08 00:53:57;;;;;;;4.20;3.47;;;15.30;99.90;;;;;;5054161;28;20658;-73
2022/07/08 00:56:27;;;;;;;7.37;3.37;;;15.30;99.90;;;;;;5052775;28;20643;-73
2022/07/08 00:58:55;;;;;;;7.23;3.80;;;15.30;99.90;;;;;;5052333;28;20615;-73
2022/07/08 01:01:21;;;;;;;5.07;3.13;;;15.30;99.90;;;;;;5054043;28;20615;-73
2022/07/08 01:03:48;;;;;;;5.27;3.50;;;15.40;99.90;;;;;;5054224;28;20614;-73
2022/07/08 01:06:15;;;;;;;3.53;3.17;;;15.30;99.90;;;;;;5053692;28;20615;-73
2022/07/08 01:08:43;;;;;;;5.10;2.93;;;15.30;99.90;;;;;;5054568;28;20684;-73
2022/07/08 01:11:10;;;;;;;3.20;2.90;;;15.20;99.90;;;;;;5053747;28;21242;-73
2022/07/08 01:13:39;;;;;;;5.93;3.60;;;15.20;99.90;;;;;;5053867;28;20731;-73
2022/07/08 01:16:06;;;;;;;3.10;2.80;;;15.10;99.90;;;;;;5053872;28;20600;-73
2022/07/08 01:18:33;;;;;;;3.60;3.30;;;15.10;99.90;;;;;;5054192;28;20621;-73
2022/07/08 01:20:59;;;;;;;6.17;3.50;;;15.10;99.90;;;;;;5035703;28;21142;-72
2022/07/08 01:23:26;;;;;;;9.53;4.03;;;15.00;99.90;;;;;;5053997;28;20611;-72
2022/07/08 01:25:54;;;;;;;4.10;3.27;;;15.00;99.90;;;;;;5054315;28;21016;-72
2022/07/08 01:28:21;;;;;;;8.23;3.60;;;14.90;99.90;;;;;;5052657;28;21142;-72
2022/07/08 01:30:47;;;;;;;6.10;3.67;;;14.90;99.90;;;;;;5053890;28;20976;-72
2022/07/08 01:33:14;;;;;;;6.87;4.00;;;14.90;99.90;;;;;;5053968;28;20670;-73
2022/07/08 01:35:40;;;;;;;5.13;3.50;;;14.90;99.90;;;;;;5053990;28;20630;-73
2022/07/08 01:38:07;;;;;;;6.87;3.77;;;14.80;99.90;;;;;;5053728;28;20981;-73
2022/07/08 01:40:34;;;;;;;4.73;3.30;;;14.80;99.90;;;;;;5053506;28;20700;-73
2022/07/08 01:43:00;;;;;;;8.60;4.47;;;14.70;99.90;;;;;;5053601;28;20611;-73
2022/07/08 01:45:26;;;;;;;6.10;2.90;;;14.80;99.90;;;;;;5035519;28;20627;-73
2022/07/08 01:47:53;;;;;;;6.60;3.63;;;14.60;99.90;;;;;;5053844;28;20611;-73
2022/07/08 01:50:20;;;;;;;9.13;3.57;;;14.60;99.90;;;;;;5053790;28;20621;-73
2022/07/08 01:52:46;;;;;;;4.30;3.30;;;14.50;99.90;;;;;;5052652;28;20633;-73
2022/07/08 01:55:13;;;;;;;5.37;3.43;;;14.50;99.90;;;;;;5053713;28;20599;-72
2022/07/08 01:57:39;;;;;;;7.67;3.20;;;14.40;99.90;;;;;;5053721;28;20804;-74
2022/07/08 02:00:06;;;;;;;6.83;3.17;;;14.40;99.90;;;;;;5035404;28;20614;-73
2022/07/08 02:02:33;;;;;;;6.27;3.60;;;14.40;99.90;;;;;;5035015;28;20617;-72
2022/07/08 02:04:59;;;;;;;9.37;3.30;;;14.40;99.90;;;;;;5035126;28;20685;-72
2022/07/08 02:07:26;;;;;;;3.67;3.03;;;14.40;99.90;;;;;;5052186;28;20622;-72
2022/07/08 02:09:53;;;;;;;7.43;2.90;;;14.30;99.90;;;;;;5056918;28;20611;-73
2022/07/08 02:12:19;;;;;;;9.63;3.63;;;14.20;99.90;;;;;;5057219;28;20726;-72
2022/07/08 02:14:51;;;;;;;4.17;3.43;;;14.00;99.90;;;;;;5056797;28;20666;-72
2022/07/08 02:17:19;;;;;;;6.03;3.70;;;13.90;99.90;;;;;;5039391;28;20619;-73
2022/07/08 02:19:46;;;;;;;4.70;2.90;;;13.80;99.90;;;;;;5057239;28;20617;-72
2022/07/08 02:22:12;;;;;;;4.60;3.47;;;13.70;99.90;;;;;;5056706;28;20626;-72
2022/07/08 02:24:39;;;;;;;12.40;3.70;;;13.60;99.90;;;;;;5057362;28;20626;-72
2022/07/08 02:27:06;;;;;;;9.73;3.57;;;13.60;99.90;;;;;;5056937;28;20611;-72
2022/07/08 02:29:33;;;;;;;10.07;3.37;;;13.60;99.90;;;;;;5056928;28;20618;-73
2022/07/08 02:32:00;;;;;;;10.10;3.20;;;13.60;99.90;;;;;;5056560;28;20696;-72
2022/07/08 02:34:27;;;;;;;4.87;2.87;;;13.50;99.90;;;;;;5056416;28;20663;-72
2022/07/08 02:36:54;;;;;;;5.90;3.60;;;13.50;99.90;;;;;;5056572;28;21161;-72
2022/07/08 02:39:21;;;;;;;5.43;3.10;;;13.40;99.90;;;;;;5056192;28;20779;-72
2022/07/08 02:41:48;;;;;;;6.30;3.10;;;13.30;99.90;;;;;;5056266;28;20619;-72
2022/07/08 02:44:15;;;;;;;7.27;4.40;;;13.30;99.90;;;;;;5056693;28;20619;-73
2022/07/08 02:46:44;;;;;;;4.73;3.40;;;13.00;99.90;;;;;;5056608;28;20635;-73
2022/07/08 02:49:10;;;;;;;10.47;3.23;;;12.90;99.90;;;;;;5056908;28;20607;-72
2022/07/08 02:51:37;;;;;;;8.50;3.07;;;12.90;99.90;;;;;;5038972;28;21001;-74
2022/07/08 02:54:05;;;;;;;4.93;3.33;;;13.00;99.90;;;;;;5056510;28;20628;-72
2022/07/08 02:56:32;;;;;;;8.43;3.70;;;12.90;99.90;;;;;;5055511;28;20635;-72
2022/07/08 02:59:00;;;;;;;3.57;3.27;;;12.90;99.90;;;;;;5038399;28;20212;-74
2022/07/08 03:01:26;;;;;;;6.03;3.50;;;12.90;99.90;;;;;;5055929;28;20586;-73
2022/07/08 03:03:53;;;;;;;9.40;3.57;;;12.90;99.90;;;;;;5056393;28;20991;-73
2022/07/08 03:06:20;;;;;;;7.20;3.83;;;12.80;99.90;;;;;;5057404;28;20611;-73
2022/07/08 03:08:46;;;;;;;4.23;3.53;;;12.70;99.90;;;;;;5057344;28;20606;-73
2022/07/08 03:11:13;;;;;;;5.73;3.03;;;12.60;99.90;;;;;;5038422;28;20611;-73
2022/07/08 03:13:39;;;;;;;4.07;2.73;;;12.60;99.90;;;;;;5056198;28;20646;-73
2022/07/08 03:16:07;;;;;;;5.20;2.97;;;12.60;99.90;;;;;;5056660;28;20599;-73
2022/07/08 03:18:34;;;;;;;7.47;3.22;;;12.30;99.90;;;;;;5056201;28;20607;-73
2022/07/08 03:21:03;;;;;;;8.10;3.72;;;12.20;99.90;;;;;;5055706;28;20196;-73
2022/07/08 03:23:32;;;;;;;5.68;3.20;;;12.20;99.90;;;;;;5057249;28;20231;-73
2022/07/08 03:25:59;;;;;;;3.20;2.90;;;12.10;99.90;;;;;;5039573;28;20204;-73
2022/07/08 03:28:26;;;;;;;5.70;3.90;;;12.00;99.90;;;;;;5056763;28;20625;-73
2022/07/08 03:30:53;;;;;;;4.78;3.95;;;12.00;99.90;;;;;;5055793;28;21164;-72
2022/07/08 03:33:19;;;;;;;9.70;3.67;;;12.00;99.90;;;;;;5055395;28;20225;-72
2022/07/08 03:35:46;;;;;;;8.35;3.40;;;12.00;99.90;;;;;;5055450;28;20196;-73
2022/07/08 03:38:12;;;;;;;10.25;3.90;;;12.10;99.90;;;;;;5038218;28;20200;-74
2022/07/08 03:43:23;;;;;;;4.60;3.90;;;12.20;99.90;;;;;;5055814;28;20189;-73
2022/07/08 03:45:50;;;;;;;7.25;3.58;;;12.00;99.90;;;;;;5056717;28;20207;-73
2022/07/08 03:48:17;;;;;;;4.22;3.40;;;11.90;99.90;;;;;;5056686;28;20216;-74
2022/07/08 03:50:43;;;;;;;4.05;3.65;;;11.80;99.90;;;;;;5055553;28;20215;-73
2022/07/08 03:53:09;;;;;;;10.85;3.80;;;11.80;99.90;;;;;;5055997;28;20235;-73
2022/07/08 03:55:36;;;;;;;9.88;4.32;;;11.80;99.90;;;;;;5037941;28;20200;-73
2022/07/08 03:58:02;;;;;;;7.38;3.67;;;11.80;99.90;;;;;;5056407;28;20204;-73
2022/07/08 04:00:29;;;;;;;10.93;4.32;;;11.80;99.90;;;;;;5056006;28;20208;-73
2022/07/08 04:02:56;;;;;;;7.20;3.92;;;11.80;99.90;;;;;;5056005;28;20220;-72
2022/07/08 04:05:22;;;;;;;6.75;3.63;;;11.70;99.90;;;;;;5038007;28;20579;-73
2022/07/08 04:07:49;;;;;;;6.70;4.05;;;11.80;99.90;;;;;;5055850;28;20609;-73
2022/07/08 04:10:15;;;;;;;6.00;4.05;;;11.90;99.90;;;;;;5054346;28;20263;-72
2022/07/08 04:12:42;;;;;;;8.13;3.90;;;12.00;99.90;;;;;;5054600;28;20710;-73
2022/07/08 04:15:09;;;;;;;7.57;3.88;;;12.00;99.90;;;;;;5055753;28;20216;-74
2022/07/08 04:17:35;;;;;;;6.03;3.85;;;12.00;99.90;;;;;;5054338;28;20307;-73
2022/07/08 04:20:02;;;;;;;12.70;4.07;;;12.10;99.90;;;;;;5056222;28;20711;-72
2022/07/08 04:22:29;;;;;;;6.70;3.85;;;12.10;99.90;;;;;;5056311;28;20203;-73
2022/07/08 04:24:55;;;;;;;10.38;3.97;;;12.10;99.90;;;;;;5056513;28;20211;-73
2022/07/08 04:27:22;;;;;;;6.47;3.83;;;12.20;99.90;;;;;;5057508;28;20558;-73
2022/07/08 04:29:48;;;;;;;7.20;3.80;;;12.10;99.90;;;;;;5056020;28;20200;-73
2022/07/08 04:32:15;;;;;;;4.97;3.72;;;12.00;99.90;;;;;;5056591;28;20204;-73
2022/07/08 04:34:41;;;;;;;5.65;5.15;;;12.00;99.90;;;;;;5056108;28;20225;-72
2022/07/08 04:37:08;;;;;;;6.35;3.92;;;12.00;99.90;;;;;;5038366;28;20656;-73
2022/07/08 04:39:34;;;;;;;6.82;4.28;;;12.10;99.90;;;;;;5051444;28;20243;-72
2022/07/08 04:42:01;;;;;;;5.97;3.60;;;12.20;99.90;;;;;;5019146;28;20197;-73
2022/07/08 04:44:28;;;;;;;5.75;3.72;;;12.30;99.90;;;;;;5036098;28;20205;-73
2022/07/08 04:46:54;;;;;;;6.32;3.78;;;12.50;99.90;;;;;;5034832;28;20652;-73
2022/07/08 04:49:20;;;;;;;5.80;3.25;;;12.60;99.90;;;;;;5034513;28;20216;-72
2022/07/08 04:51:47;;;;;;;6.30;4.15;;;12.80;99.90;;;;;;5036104;28;20562;-73
2022/07/08 04:54:13;;;;;;;4.15;3.53;;;12.90;99.90;;;;;;5034846;28;20213;-73
2022/07/08 04:56:40;;;;;;;9.00;3.50;;;13.10;99.90;;;;;;5035603;28;20214;-73
2022/07/08 04:59:08;;;;;;;6.53;3.35;;;13.30;99.90;;;;;;5035761;28;20197;-73
2022/07/08 05:01:34;;;;;;;6.60;4.27;;;13.30;99.90;;;;;;5035653;28;20582;-73
2022/07/08 05:04:28;;;;;;;8.10;3.50;;;13.40;99.90;;;;;;5036655;28;20674;-73
2022/07/08 05:07:09;;;;;;;6.40;3.33;;;13.50;99.90;;;;;;5033691;28;20678;-72
2022/07/08 05:09:36;;;;;;;5.40;3.70;;;13.50;99.90;;;;;;5035976;28;20578;-74
2022/07/08 05:12:03;;;;;;;7.90;4.00;;;13.50;99.90;;;;;;5035779;28;20734;-73
2022/07/08 05:14:29;;;;;;;6.93;4.17;;;13.60;99.90;;;;;;5034069;28;20663;-73
2022/07/08 05:16:56;;;;;;;8.53;2.90;;;13.70;99.90;;;;;;5036337;28;20597;-73
2022/07/08 05:19:22;;;;;;;13.60;3.30;;;13.80;99.90;;;;;;5034367;28;20608;-74
2022/07/08 05:21:48;;;;;;;8.70;4.47;;;13.90;99.90;;;;;;5035781;28;20626;-74
2022/07/08 05:24:15;;;;;;;9.50;3.13;;;14.10;99.90;;;;;;5036116;28;20608;-73
2022/07/08 05:26:42;;;;;;;7.20;3.20;;;14.30;99.90;;;;;;5033786;28;21143;-73
2022/07/08 05:29:08;;;;;;;7.70;3.23;;;14.50;99.90;;;;;;5034044;28;21019;-74
2022/07/08 05:31:35;;;;;;;7.70;3.43;;;14.80;99.90;;;;;;5034434;28;20582;-73
2022/07/08 05:34:01;;;;;;;7.00;2.80;;;14.70;99.90;;;;;;5035353;28;20658;-74
2022/07/08 05:36:29;;;;;;;8.20;3.43;;;14.80;99.90;;;;;;5035535;28;20608;-73
2022/07/08 05:38:55;;;;;;;10.10;3.57;;;15.10;99.90;;;;;;5019266;28;20612;-74
2022/07/08 05:41:22;;;;;;;7.83;3.10;;;15.20;99.90;;;;;;5053275;28;20900;-73
2022/07/08 05:43:48;;;;;;;7.67;3.53;;;15.20;99.90;;;;;;5055334;28;20988;-74
2022/07/08 05:46:15;;;;;;;10.27;3.27;;;15.40;99.90;;;;;;5055889;28;20620;-74
2022/07/08 05:48:44;;;;;;;7.30;3.20;;;15.50;99.90;;;;;;5055933;28;21224;-74
2022/07/08 05:51:11;;;;;;;5.23;2.90;;;15.70;99.90;;;;;;5055231;28;21250;-74
2022/07/08 05:53:37;;;;;;;9.60;3.27;;;15.90;99.90;;;;;;5037100;28;20658;-73
2022/07/08 05:56:04;;;;;;;6.63;3.10;;;15.90;99.90;;;;;;5054440;28;20632;-72
2022/07/08 05:58:31;;;;;;;8.80;3.83;;;16.00;99.90;;;;;;5055395;28;20681;-72
2022/07/08 06:00:57;;;;;;;10.93;3.53;;;16.10;99.90;;;;;;5054854;28;20607;-74
2022/07/08 06:03:24;;;;;;;13.23;4.00;;;16.20;99.90;;;;;;5037968;28;20619;-73
2022/07/08 06:05:50;;;;;;;6.70;3.20;;;16.20;99.90;;;;;;5054975;28;21165;-73
2022/07/08 06:08:17;;;;;;;5.13;3.23;;;16.30;99.90;;;;;;5054925;28;20619;-75
2022/07/08 06:10:43;;;;;;;11.43;3.03;;;16.50;99.90;;;;;;5056308;28;20604;-73
2022/07/08 06:13:10;;;;;;;12.00;4.30;;;16.50;99.90;;;;;;5053052;28;20615;-72
2022/07/08 06:15:36;;;;;;;7.73;3.10;;;16.50;99.90;;;;;;5054368;28;20651;-73
2022/07/08 06:18:03;;;;;;;7.13;2.80;;;16.60;99.90;;;;;;5053746;28;20603;-73
2022/07/08 06:20:30;;;;;;;5.87;2.80;;;16.70;99.90;;;;;;5053880;28;20622;-73
2022/07/08 06:22:56;;;;;;;8.27;2.90;;;16.70;99.90;;;;;;5054591;28;20630;-73
2022/07/08 06:25:23;;;;;;;5.50;2.97;;;16.70;99.90;;;;;;5055319;28;20645;-73
2022/07/08 06:27:49;;;;;;;4.60;3.10;;;16.80;99.90;;;;;;5055305;28;20634;-74
2022/07/08 06:30:16;;;;;;;7.13;3.33;;;16.90;99.90;;;;;;5056114;28;20984;-74
2022/07/08 06:32:42;;;;;;;7.00;3.50;;;17.00;99.90;;;;;;5053878;28;20623;-75
2022/07/08 06:35:10;;;;;;;10.43;3.83;;;17.00;99.90;;;;;;5054493;28;20651;-75
2022/07/08 06:37:38;;;;;;;6.40;3.50;;;17.20;99.90;;;;;;5036052;28;20615;-77
2022/07/08 06:40:05;;;;;;;3.63;3.33;;;17.30;99.90;;;;;;5036092;28;21006;-74
2022/07/08 06:42:32;;;;;;;7.70;2.70;;;17.40;99.90;;;;;;5055206;28;20698;-74
2022/07/08 06:44:59;;;;;;;7.60;3.40;;;17.40;99.90;;;;;;5054634;28;20625;-73
2022/07/08 06:47:25;;;;;;;6.47;2.80;;;17.50;99.90;;;;;;5054395;28;20747;-74
2022/07/08 06:49:54;;;;;;;7.22;3.20;;;17.40;99.90;;;;;;5054257;28;21097;-74
2022/07/08 06:52:21;;;;;;;8.20;3.87;;;17.50;99.90;;;;;;5053664;28;20205;-74
2022/07/08 06:54:47;;;;;;;10.03;5.80;;;17.60;99.90;;;;;;5057672;28;20661;-74
2022/07/08 06:57:15;;;;;;;12.23;3.90;;;17.70;99.90;;;;;;5041507;28;21047;-73
2022/07/08 06:59:41;;;;;;;3.87;3.30;;;17.90;99.90;;;;;;5060471;28;20615;-73
2022/07/08 07:02:08;;;;;;;7.30;3.23;;;17.70;99.90;;;;;;5059227;28;20615;-73
2022/07/08 07:04:35;;;;;;;9.53;3.50;;;17.80;99.90;;;;;;5059215;28;21100;-74
2022/07/08 07:07:03;;;;;;;8.10;4.90;;;17.90;99.90;;;;;;5058370;28;20615;-75
2022/07/08 07:09:30;;;;;;;4.90;3.53;;;18.00;99.90;;;;;;5058594;28;20627;-74
2022/07/08 07:11:56;;;;;;;8.10;3.87;;;18.00;99.90;;;;;;5059507;28;20614;-73
2022/07/08 07:14:22;;;;;;;4.63;3.70;;;18.00;99.90;;;;;;5057052;28;20655;-73
2022/07/08 07:16:49;;;;;;;3.40;3.10;;;18.10;99.90;;;;;;5057775;28;20603;-73
2022/07/08 07:19:15;;;;;;;5.63;3.33;;;18.30;99.90;;;;;;5056900;28;20611;-72
2022/07/08 07:21:42;;;;;;;5.30;3.70;;;18.30;99.90;;;;;;5056929;28;20615;-75
2022/07/08 07:24:08;;;;;;;7.40;3.73;;;18.10;99.90;;;;;;5058202;28;21128;-74
2022/07/08 07:26:36;;;;;;;5.63;3.57;;;18.10;99.90;;;;;;5059129;28;20678;-75
2022/07/08 07:29:04;;;;;;;6.83;3.60;;;18.30;99.90;;;;;;5057601;28;20646;-74
2022/07/08 07:31:30;;;;;;;6.53;3.93;;;18.40;99.90;;;;;;5057503;28;20974;-74
2022/07/08 07:33:56;;;;;;;6.23;3.57;;;18.50;99.90;;;;;;5056922;28;20665;-74
2022/07/08 07:36:23;;;;;;;5.33;3.93;;;18.50;99.90;;;;;;5056472;28;20626;-74
2022/07/08 07:38:49;;;;;;;4.17;3.90;;;18.70;99.90;;;;;;5039378;28;20612;-74
2022/07/08 07:41:16;;;;;;;5.07;4.37;;;19.10;99.90;;;;;;5038296;28;20615;-74
2022/07/08 07:43:43;;;;;;;11.43;4.03;;;19.30;99.90;;;;;;5055424;28;20603;-74
2022/07/08 07:46:09;;;;;;;5.37;4.03;;;19.30;99.90;;;;;;5055399;28;20611;-72
2022/07/08 07:48:35;;;;;;;7.83;5.10;;;19.40;99.90;;;;;;5056930;28;20607;-73
2022/07/08 07:51:02;;;;;;;5.83;4.13;;;19.50;99.90;;;;;;5056901;28;20611;-73
2022/07/08 07:53:29;;;;;;;8.30;4.90;;;19.50;99.90;;;;;;5039597;28;20677;-74
2022/07/08 07:55:57;;;;;;;7.63;4.63;;;19.30;99.90;;;;;;5057879;28;20671;-74
2022/07/08 07:58:24;;;;;;;9.30;4.60;;;19.10;99.90;;;;;;5056397;28;20706;-74
2022/07/08 08:00:52;;;;;;;12.97;5.93;;;19.30;99.90;;;;;;5056531;28;20974;-74
2022/07/08 08:03:19;;;;;;;6.23;5.20;;;19.00;99.90;;;;;;5056549;28;20638;-73
2022/07/08 08:05:45;;;;;;;8.67;5.30;;;19.10;99.90;;;;;;5055731;28;21191;-74
2022/07/08 08:08:12;;;;;;;7.80;5.10;;;19.70;99.90;;;;;;5058616;28;21176;-74
2022/07/08 08:10:38;;;;;;;6.37;5.00;;;19.70;99.90;;;;;;5057008;28;20622;-73
2022/07/08 08:13:05;;;;;;;5.87;5.37;;;20.00;99.90;;;;;;5055919;28;20619;-74
2022/07/08 08:15:32;;;;;;;4.70;4.40;;;20.20;99.90;;;;;;5056988;28;20674;-74
2022/07/08 08:17:59;;;;;;;4.50;4.20;;;20.60;99.90;;;;;;5060456;28;20955;-74
2022/07/08 08:20:30;;;;;;;6.90;4.20;;;19.90;99.90;;;;;;5057138;28;20961;-74
2022/07/08 08:22:58;;;;;;;5.30;4.90;;;19.70;99.90;;;;;;5056527;28;20556;-74
2022/07/08 08:25:25;;;;;;;4.60;4.30;;;19.80;99.90;;;;;;5054766;28;20619;-74
2022/07/08 08:27:52;;;;;;;5.30;4.57;;;19.80;99.90;;;;;;5057369;28;20603;-74
2022/07/08 08:30:19;;;;;;;6.50;5.00;;;20.00;99.90;;;;;;5056624;28;20615;-73
2022/07/08 08:32:45;;;;;;;5.80;5.30;;;19.90;99.90;;;;;;5057467;28;20606;-74
2022/07/08 08:35:12;;;;;;;5.70;5.10;;;19.90;99.90;;;;;;5058429;28;21327;-74
2022/07/08 08:37:39;;;;;;;5.80;5.30;;;20.00;99.90;;;;;;5056693;28;20611;-74
2022/07/08 08:40:08;;;;;;;6.87;5.47;;;20.30;99.90;;;;;;5041180;28;20654;-73
2022/07/08 08:42:35;;;;;;;5.73;5.20;;;20.30;99.90;;;;;;5055997;28;20618;-73
2022/07/08 08:45:03;;;;;;;5.10;4.70;;;20.30;99.90;;;;;;5057049;28;20856;-72
2022/07/08 08:47:31;;;;;;;5.37;4.87;;;20.30;99.90;;;;;;5056000;28;20627;-72
2022/07/08 08:50:53;;;;;;;9.67;5.33;;;19.90;99.90;;;;;;5057038;28;20617;-72
2022/07/08 08:52:49;;;;;;;5.13;4.63;;;19.90;99.90;;;;;;5055566;28;20631;-74
2022/07/08 08:55:26;;;;;;;5.97;4.40;;;19.50;99.90;;;;;;5058827;28;20666;-74
2022/07/08 08:58:03;;;;;;;6.67;5.07;;;19.60;99.90;;;;;;5056940;28;20643;-74
2022/07/08 09:00:32;;;;;;;5.77;4.93;;;19.60;99.90;;;;;;5056865;28;20623;-74
2022/07/08 09:03:00;;;;;;;6.30;5.70;;;20.00;99.90;;;;;;5038312;28;21175;-74
2022/07/08 09:05:27;;;;;;;5.03;4.57;;;20.00;99.90;;;;;;5054156;28;20987;-73
2022/07/08 09:07:54;;;;;;;4.40;4.07;;;19.90;99.90;;;;;;5058533;28;21156;-73
2022/07/08 09:10:21;;;;;;;8.90;4.57;;;19.90;99.90;;;;;;5058732;28;21052;-73
2022/07/08 09:13:12;;;;;;;5.73;4.37;;;19.80;99.90;;;;;;5059130;28;20615;-73
2022/07/08 09:15:46;;;;;;;5.97;4.80;;;20.00;99.90;;;;;;5057309;28;20646;-73
2022/07/08 09:18:15;;;;;;;5.60;5.10;;;20.30;99.90;;;;;;5055356;28;20571;-73
2022/07/08 09:20:49;;;;;;;4.97;4.47;;;20.00;99.90;;;;;;5055583;28;20607;-73
2022/07/08 09:23:21;;;;;;;5.20;4.70;;;20.40;99.90;;;;;;5053971;28;20615;-74
2022/07/08 09:25:49;;;;;;;8.40;5.27;;;20.40;99.90;;;;;;5055082;28;20619;-74
2022/07/08 09:28:27;;;;;;;5.27;4.80;;;20.40;99.90;;;;;;5055182;28;20611;-74
2022/07/08 09:30:57;;;;;;;5.53;5.10;;;20.70;99.90;;;;;;5055648;28;20582;-73
2022/07/08 09:33:25;;;;;;;9.23;4.73;;;20.80;99.90;;;;;;5054966;28;21180;-73
2022/07/08 09:35:52;;;;;;;6.00;4.90;;;20.80;99.90;;;;;;5056076;28;20686;-74
2022/07/08 09:38:19;;;;;;;9.03;4.97;;;21.00;99.90;;;;;;5054038;28;20616;-74
2022/07/08 09:40:59;;;;;;;9.20;5.30;;;21.20;99.90;;;;;;5051828;28;20663;-74
2022/07/08 09:43:26;;;;;;;4.70;4.40;;;21.40;99.90;;;;;;5036137;28;20627;-75
2022/07/08 09:45:53;;;;;;;6.23;4.93;;;21.60;99.90;;;;;;5057660;28;20702;-73
2022/07/08 09:48:24;;;;;;;5.70;5.00;;;21.50;99.90;;;;;;5038706;28;20638;-72
2022/07/08 09:50:50;;;;;;;4.83;4.43;;;21.50;99.90;;;;;;5056961;28;20619;-73
2022/07/08 09:53:20;;;;;;;5.30;4.93;;;21.80;99.90;;;;;;5054298;28;20627;-72
2022/07/08 09:55:51;;;;;;;6.10;5.20;;;21.60;99.90;;;;;;5038188;28;20804;-73
2022/07/08 09:58:21;;;;;;;5.53;5.13;;;21.40;99.90;;;;;;5055351;28;20706;-72
2022/07/08 10:00:49;;;;;;;5.63;5.10;;;21.20;99.90;;;;;;5055152;28;20619;-72
2022/07/08 10:03:17;;;;;;;5.97;5.43;;;21.40;99.90;;;;;;5055555;28;20642;-74
2022/07/08 10:05:44;;;;;;;8.40;5.60;;;21.20;99.90;;;;;;5054590;28;20623;-73
2022/07/08 10:08:12;;;;;;;5.57;5.17;;;21.30;99.90;;;;;;5054497;28;20612;-73
2022/07/08 10:10:41;;;;;;;9.53;5.40;;;21.40;99.90;;;;;;5038007;28;20727;-74
2022/07/08 10:13:08;;;;;;;5.77;5.37;;;21.50;99.90;;;;;;5055556;28;20607;-72
2022/07/08 10:15:37;;;;;;;6.83;5.30;;;21.50;99.90;;;;;;5055344;28;20717;-74
2022/07/08 10:18:13;;;;;;;5.00;4.70;;;21.60;99.90;;;;;;5054962;28;20608;-73
2022/07/08 10:20:44;;;;;;;6.63;6.20;;;21.60;99.90;;;;;;5055352;28;20661;-72
2022/07/08 10:23:32;;;;;;;5.37;4.93;;;21.80;99.90;;;;;;5054760;28;20568;-72
2022/07/08 10:25:59;;;;;;;5.60;5.10;;;21.60;99.90;;;;;;5037297;28;20639;-73
2022/07/08 10:28:39;;;;;;;5.20;4.80;;;22.00;99.90;;;;;;5053766;28;20594;-73
2022/07/08 10:31:24;;;;;;;5.57;4.80;;;22.00;99.90;;;;;;5058346;28;20659;-73
2022/07/08 10:34:00;;;;;;;5.70;5.03;;;21.50;99.90;;;;;;5041904;28;20567;-73
2022/07/08 10:36:26;;;;;;;5.93;5.07;;;21.50;99.90;;;;;;5059578;28;21023;-74
2022/07/08 10:38:55;;;;;;;5.43;4.77;;;21.10;99.90;;;;;;5059799;28;20611;-73
2022/07/08 10:41:25;;;;;;;5.40;4.90;;;21.50;99.90;;;;;;5059154;28;20583;-73
2022/07/08 10:43:58;;;;;;;13.40;4.80;;;21.90;99.90;;;;;;5056482;28;20975;-73
2022/07/08 10:46:25;;;;;;;5.20;4.80;;;21.30;99.90;;;;;;5041061;28;21166;-73
2022/07/08 10:48:56;;;;;;;5.67;5.20;;;21.30;99.90;;;;;;5058485;28;20615;-73
2022/07/08 10:51:26;;;;;;;6.27;5.00;;;21.30;99.90;;;;;;5058388;28;20638;-73
2022/07/08 10:53:58;;;;;;;8.40;5.23;;;21.30;99.90;;;;;;5058882;28;20595;-73
2022/07/08 10:56:53;;;;;;;8.23;5.30;;;21.80;99.90;;;;;;5058377;28;20651;-73
2022/07/08 10:59:27;;;;;;;5.60;4.93;;;22.00;99.90;;;;;;5058360;28;20599;-73
2022/07/08 11:02:11;;;;;;;7.73;5.00;;;22.40;99.90;;;;;;5058176;28;20543;-73
2022/07/08 11:04:37;;;;;;;7.67;6.93;;;22.20;99.90;;;;;;5058060;28;20621;-73
2022/07/08 11:07:27;;;;;;;8.03;5.03;;;22.40;99.90;;;;;;5058347;28;20656;-73
2022/07/08 11:10:02;;;;;;;6.03;5.60;;;22.90;99.90;;;;;;5056596;28;20629;-73
2022/07/08 11:12:39;;;;;;;6.67;5.43;;;22.80;99.90;;;;;;5058172;28;21180;-73
2022/07/08 11:15:16;;;;;;;7.80;5.60;;;22.70;99.90;;;;;;5057618;28;20671;-72
2022/07/08 11:17:46;;;;;;;6.07;5.57;;;22.00;99.90;;;;;;5040278;28;20721;-71
2022/07/08 11:20:15;;;;;;;5.93;5.43;;;22.00;99.90;;;;;;5057297;28;20633;-72
2022/07/08 11:22:43;;;;;;;5.90;5.30;;;22.00;99.90;;;;;;5056986;28;21177;-72
2022/07/08 11:25:16;;;;;;;5.17;4.80;;;22.40;99.90;;;;;;5056742;28;20633;-72
2022/07/08 11:27:43;;;;;;;5.67;5.17;;;22.30;99.90;;;;;;5057472;28;21011;-72
2022/07/08 11:30:12;;;;;;;5.40;5.20;;;22.70;99.90;;;;;;5057640;28;20618;-72
2022/07/08 11:32:41;;;;;;;6.67;6.07;;;24.20;99.90;;;;;;5057021;28;20619;-72
2022/07/08 11:35:08;;;;;;;9.07;6.07;;;24.30;99.90;;;;;;5055930;28;20647;-72
2022/07/08 11:37:42;;;;;;;6.60;6.10;;;24.80;99.90;;;;;;5057538;28;20611;-73
2022/07/08 11:40:10;;;;;;;6.87;6.17;;;25.20;99.90;;;;;;5056877;28;20646;-75
2022/07/08 11:42:39;;;;;;;6.13;5.73;;;25.90;99.90;;;;;;5055705;28;20634;-74
2022/07/08 11:45:10;;;;;;;7.00;6.40;;;25.50;99.90;;;;;;5055059;28;20697;-74
2022/07/08 11:47:37;;;;;;;7.77;6.53;;;26.60;99.90;;;;;;5055303;28;20607;-74
2022/07/08 11:50:05;;;;;;;7.03;6.40;;;26.40;99.90;;;;;;5055771;28;20976;-74
2022/07/08 11:52:31;;;;;;;11.43;10.50;;;25.50;99.90;;;;;;5055398;28;20985;-74
2022/07/08 11:54:58;;;;;;;7.50;6.77;;;25.90;99.90;;;;;;5037776;28;20681;-74
2022/07/08 11:57:25;;;;;;;7.33;6.73;;;26.10;99.90;;;;;;5055415;28;20641;-74
2022/07/08 11:59:51;;;;;;;7.37;6.77;;;25.90;99.90;;;;;;5055167;28;20626;-74
2022/07/08 12:02:20;;;;;;;6.57;6.10;;;25.20;99.90;;;;;;5055622;28;20615;-74
2022/07/08 12:04:48;;;;;;;7.20;6.70;;;26.50;99.90;;;;;;5055194;28;20999;-74
2022/07/08 12:07:20;;;;;;;6.83;6.43;;;26.20;99.90;;;;;;5053204;28;20689;-75
2022/07/08 12:10:03;;;;;;;7.33;6.63;;;27.00;99.90;;;;;;5054505;28;21169;-74
2022/07/08 12:12:32;;;;;;;7.73;7.13;;;25.90;99.90;;;;;;5054854;28;20625;-75
2022/07/08 12:15:14;;;;;;;7.37;6.87;;;26.80;99.90;;;;;;5036889;28;21083;-74
2022/07/08 12:17:40;;;;;;;7.23;6.73;;;27.50;99.90;;;;;;5037131;28;20619;-77
2022/07/08 12:20:08;;;;;;;7.00;6.60;;;27.40;99.90;;;;;;5056298;28;20614;-75
2022/07/08 12:22:45;;;;;;;6.77;6.37;;;27.10;99.90;;;;;;5055353;28;20612;-73
2022/07/08 12:25:14;;;;;;;7.47;6.10;;;27.30;99.90;;;;;;5055166;28;20586;-72
2022/07/08 12:27:41;;;;;;;6.30;6.00;;;27.20;99.90;;;;;;5036633;28;20622;-73
2022/07/08 12:30:08;;;;;;;7.20;6.70;;;26.40;99.90;;;;;;5054576;28;20635;-72
2022/07/08 12:32:42;;;;;;;8.67;7.83;;;26.50;99.90;;;;;;5054920;28;20642;-72
2022/07/08 12:35:11;;;;;;;6.90;6.40;;;26.50;99.90;;;;;;5054927;28;20684;-72
2022/07/08 12:37:39;;;;;;;7.27;6.50;;;27.50;99.90;;;;;;5053626;28;21181;-73
2022/07/08 12:40:17;;;;;;;8.77;7.70;;;27.90;99.90;;;;;;5054122;28;21236;-73
2022/07/08 12:43:04;;;;;;;8.50;7.67;;;27.10;99.90;;;;;;5054294;28;20957;-73
2022/07/08 12:45:30;;;;;;;7.30;6.90;;;27.00;99.90;;;;;;5054470;28;20623;-73
2022/07/08 12:47:58;;;;;;;7.17;6.73;;;28.30;99.90;;;;;;5054687;28;20727;-73
2022/07/08 12:50:26;;;;;;;7.10;6.50;;;28.00;99.90;;;;;;5054299;28;20583;-74
2022/07/08 12:52:54;;;;;;;6.97;6.57;;;28.60;99.90;;;;;;5053520;28;20611;-72